Time;durP1;ratioP1;P1;durP2;ratioP2;P2;SDS_P1;SDS_P2;PMS_P1;PMS_P2;Temp;Humidity;BMP_temperature;BMP_pressure;BME280_temperature;BME280_humidity;BME280_pressure;Samples;Min_cycle;Max_cycle;Signal;HPM_P1;HPM_P2
2024/02/14 00:00:34;;;;;;;1.90;1.13;;;8.90;55.80;;;;;;5067553;28;20506;-66
2024/02/14 00:03:03;;;;;;;13.93;3.53;;;8.90;55.70;;;;;;5064176;28;20060;-61
2024/02/14 00:05:33;;;;;;;2.08;1.45;;;8.90;55.70;;;;;;5072155;28;20066;-63
2024/02/14 00:08:03;;;;;;;9.38;4.63;;;8.90;55.60;;;;;;5050554;28;20058;-61
2024/02/14 00:10:31;;;;;;;12.50;4.70;;;8.90;55.70;;;;;;5051905;28;20456;-62
2024/02/14 00:12:59;;;;;;;4.43;1.10;;;8.90;55.70;;;;;;5070311;28;20060;-71
2024/02/14 00:15:28;;;;;;;1.00;0.88;;;8.90;55.70;;;;;;5062825;28;20056;-61
2024/02/14 00:17:56;;;;;;;3.53;1.30;;;8.80;55.70;;;;;;5064495;28;20062;-59
2024/02/14 00:20:25;;;;;;;1.70;1.13;;;8.80;55.70;;;;;;5064695;28;20054;-61
2024/02/14 00:22:55;;;;;;;6.68;2.88;;;8.50;55.70;;;;;;5065027;28;20044;-60
2024/02/14 00:25:23;;;;;;;4.45;1.85;;;8.80;55.90;;;;;;5051823;28;20071;-61
2024/02/14 00:27:51;;;;;;;9.73;1.30;;;8.80;56.00;;;;;;5066572;28;20074;-60
2024/02/14 00:30:20;;;;;;;2.08;1.35;;;8.80;56.00;;;;;;5051585;28;20067;-62
2024/02/14 00:32:49;;;;;;;1.48;1.08;;;8.90;56.00;;;;;;5068423;28;20106;-60
2024/02/14 00:35:17;;;;;;;4.13;1.45;;;8.90;56.00;;;;;;5062903;28;20039;-60
2024/02/14 00:37:46;;;;;;;12.50;4.43;;;8.90;56.00;;;;;;5069314;28;20060;-60
2024/02/14 00:40:16;;;;;;;1.35;1.02;;;8.90;55.90;;;;;;5066808;28;20044;-59
2024/02/14 00:42:44;;;;;;;1.20;0.90;;;8.90;55.90;;;;;;5070989;28;20090;-59
2024/02/14 00:45:13;;;;;;;13.13;4.55;;;9.00;56.20;;;;;;5055266;28;20056;-62
2024/02/14 00:47:41;;;;;;;3.90;1.92;;;8.90;55.80;;;;;;5064310;28;20854;-58
2024/02/14 00:50:13;;;;;;;5.22;1.33;;;9.00;55.80;;;;;;5053805;28;20049;-59
2024/02/14 00:52:43;;;;;;;4.03;1.73;;;9.00;56.00;;;;;;5062139;28;20136;-61
2024/02/14 00:55:11;;;;;;;2.65;0.98;;;8.90;55.60;;;;;;5054852;28;20052;-59
2024/02/14 00:57:42;;;;;;;1.15;0.90;;;8.90;56.10;;;;;;5053741;28;20534;-59
2024/02/14 01:00:11;;;;;;;16.02;4.95;;;8.90;55.70;;;;;;5060134;28;20055;-59
2024/02/14 01:02:39;;;;;;;0.93;0.93;;;8.80;55.70;;;;;;5058608;28;20067;-61
2024/02/14 01:05:09;;;;;;;15.57;4.78;;;8.80;55.90;;;;;;5044475;28;20055;-64
2024/02/14 01:07:37;;;;;;;3.05;1.77;;;8.80;55.70;;;;;;5059824;28;20143;-59
2024/02/14 01:10:06;;;;;;;8.20;3.60;;;8.80;55.70;;;;;;5052814;28;20064;-60
2024/02/14 01:12:34;;;;;;;7.43;2.72;;;8.80;55.80;;;;;;5058858;28;20164;-61
2024/02/14 01:15:05;;;;;;;2.25;1.00;;;8.80;55.60;;;;;;5067055;28;20060;-61
2024/02/14 01:17:36;;;;;;;2.38;1.42;;;8.80;55.60;;;;;;5059840;28;20059;-62
2024/02/14 01:20:05;;;;;;;2.90;1.77;;;8.80;55.60;;;;;;5062158;28;20068;-60
2024/02/14 01:22:34;;;;;;;2.10;1.23;;;8.70;55.60;;;;;;5052471;28;20079;-58
2024/02/14 01:25:02;;;;;;;3.90;1.75;;;8.70;55.60;;;;;;5064949;28;20083;-60
2024/02/14 01:27:31;;;;;;;1.90;1.63;;;8.70;55.60;;;;;;5056960;28;20060;-60
2024/02/14 01:29:59;;;;;;;7.20;1.73;;;8.60;55.90;;;;;;5041541;28;20533;-60
2024/02/14 01:32:29;;;;;;;1.25;1.15;;;8.60;55.60;;;;;;5055118;28;20059;-59
2024/02/14 01:34:59;;;;;;;3.70;2.20;;;8.60;55.60;;;;;;5054204;28;20056;-60
2024/02/14 01:37:29;;;;;;;4.60;2.47;;;8.60;55.60;;;;;;5062069;28;20390;-59
2024/02/14 01:39:57;;;;;;;2.47;1.23;;;8.60;55.60;;;;;;5056632;28;20087;-59
2024/02/14 01:42:27;;;;;;;6.07;1.05;;;8.50;55.60;;;;;;5056937;28;20056;-59
2024/02/14 01:44:56;;;;;;;3.47;2.58;;;8.50;55.60;;;;;;5076027;28;20076;-60
2024/02/14 01:47:24;;;;;;;3.20;1.20;;;8.50;55.70;;;;;;5073393;28;20048;-61
2024/02/14 01:49:54;;;;;;;3.20;1.63;;;8.60;55.80;;;;;;5048214;28;20150;-60
2024/02/14 01:52:22;;;;;;;5.65;1.20;;;8.60;55.80;;;;;;5076785;28;20056;-60
2024/02/14 01:54:52;;;;;;;0.90;0.90;;;8.60;55.80;;;;;;5070608;28;20139;-59
2024/02/14 01:57:21;;;;;;;2.65;0.95;;;8.60;55.70;;;;;;5075709;28;20543;-59
2024/02/14 01:59:52;;;;;;;0.73;0.73;;;8.70;55.90;;;;;;5068036;28;20048;-68
2024/02/14 02:02:26;;;;;;;3.30;1.05;;;8.70;55.90;;;;;;5071856;28;21509;-60
2024/02/14 02:04:55;;;;;;;0.82;0.73;;;8.80;56.50;;;;;;5067443;28;20142;-61
2024/02/14 02:07:25;;;;;;;0.88;0.85;;;8.80;55.80;;;;;;5070916;28;20060;-60
2024/02/14 02:09:53;;;;;;;1.27;1.00;;;8.80;55.80;;;;;;5072533;28;20548;-59
2024/02/14 02:12:21;;;;;;;0.70;0.70;;;8.90;55.80;;;;;;5076306;28;20055;-60
2024/02/14 02:14:51;;;;;;;2.60;1.30;;;8.90;55.70;;;;;;5052102;28;20064;-71
2024/02/14 02:17:21;;;;;;;0.80;0.80;;;8.90;55.80;;;;;;5074427;28;20062;-60
2024/02/14 02:19:49;;;;;;;5.28;1.92;;;8.90;55.60;;;;;;5071854;28;20117;-65
2024/02/14 02:22:19;;;;;;;7.75;3.65;;;9.00;55.70;;;;;;5072369;28;20122;-61
2024/02/14 02:24:50;;;;;;;1.05;0.85;;;9.00;55.60;;;;;;5074977;28;20105;-60
2024/02/14 02:27:19;;;;;;;2.92;0.75;;;9.10;55.80;;;;;;5067410;28;20075;-61
2024/02/14 02:29:47;;;;;;;2.10;1.23;;;9.20;55.50;;;;;;5070496;28;20063;-59
2024/02/14 02:32:16;;;;;;;1.25;1.15;;;9.20;55.30;;;;;;5076574;28;20060;-60
2024/02/14 02:34:45;;;;;;;2.60;1.08;;;9.30;55.40;;;;;;5070108;28;20074;-59
2024/02/14 02:37:13;;;;;;;2.13;1.20;;;9.30;55.30;;;;;;5066598;28;20120;-60
2024/02/14 02:39:42;;;;;;;0.80;0.80;;;9.30;55.30;;;;;;5070245;28;20151;-59
2024/02/14 02:42:11;;;;;;;1.65;1.20;;;9.40;55.30;;;;;;5075866;28;20576;-59
2024/02/14 02:44:40;;;;;;;2.20;0.85;;;9.40;55.30;;;;;;5068511;28;20051;-59
2024/02/14 02:47:10;;;;;;;2.13;1.10;;;9.50;55.20;;;;;;5065515;28;20079;-59
2024/02/14 02:49:39;;;;;;;7.97;1.25;;;9.50;55.10;;;;;;5068805;28;20068;-60
2024/02/14 02:52:07;;;;;;;1.80;1.00;;;9.60;55.40;;;;;;5070245;28;20088;-60
2024/02/14 02:54:35;;;;;;;4.57;1.00;;;9.70;55.10;;;;;;5068174;28;20052;-66
2024/02/14 02:57:04;;;;;;;3.53;0.93;;;9.80;55.00;;;;;;5071041;28;20737;-61
2024/02/14 02:59:35;;;;;;;2.13;0.80;;;9.80;54.90;;;;;;5070453;28;20606;-60
2024/02/14 03:02:08;;;;;;;2.42;1.10;;;9.80;54.70;;;;;;5065927;28;20060;-59
2024/02/14 03:04:36;;;;;;;2.03;0.77;;;9.90;54.70;;;;;;5075692;28;20051;-60
2024/02/14 03:07:20;;;;;;;0.70;0.70;;;9.90;54.60;;;;;;5068567;28;20048;-59
2024/02/14 03:09:48;;;;;;;1.80;1.02;;;9.90;54.60;;;;;;5073765;28;20135;-60
2024/02/14 03:12:18;;;;;;;3.72;1.55;;;9.90;54.50;;;;;;5075944;28;20059;-60
2024/02/14 03:14:49;;;;;;;1.02;0.93;;;9.90;54.40;;;;;;5069122;28;20052;-59
2024/02/14 03:17:18;;;;;;;1.65;1.25;;;9.90;54.50;;;;;;5068733;28;20643;-59
2024/02/14 03:19:48;;;;;;;14.02;5.20;;;9.90;54.40;;;;;;5049828;28;20052;-62
2024/02/14 03:22:18;;;;;;;3.30;1.40;;;9.90;54.10;;;;;;5069279;28;20482;-60
2024/02/14 03:24:47;;;;;;;0.55;0.50;;;9.90;54.30;;;;;;5069627;28;20064;-59
2024/02/14 03:27:17;;;;;;;0.95;0.80;;;9.90;54.20;;;;;;5059315;28;20051;-59
2024/02/14 03:29:47;;;;;;;0.75;0.55;;;9.90;54.20;;;;;;5070266;28;20105;-59
2024/02/14 03:32:17;;;;;;;2.83;0.93;;;9.90;54.20;;;;;;5074160;28;20060;-61
2024/02/14 03:34:45;;;;;;;3.45;1.42;;;9.80;54.20;;;;;;5065418;28;20464;-61
2024/02/14 03:37:14;;;;;;;7.75;2.30;;;9.80;54.20;;;;;;5067811;28;20076;-60
2024/02/14 03:39:42;;;;;;;0.80;0.80;;;9.80;54.20;;;;;;5072878;28;20501;-61
2024/02/14 03:42:11;;;;;;;1.35;0.98;;;9.80;54.20;;;;;;5070595;28;20060;-60
2024/02/14 03:44:40;;;;;;;3.60;1.63;;;9.80;54.20;;;;;;5078327;28;20058;-60
2024/02/14 03:47:09;;;;;;;6.07;2.28;;;9.80;54.20;;;;;;5072085;28;20056;-61
2024/02/14 03:49:39;;;;;;;1.23;1.10;;;9.90;54.30;;;;;;5051417;28;20401;-62
2024/02/14 03:52:09;;;;;;;1.83;1.50;;;9.90;54.20;;;;;;5054413;28;20608;-59
2024/02/14 03:54:38;;;;;;;3.50;0.77;;;9.90;54.10;;;;;;5076174;28;20105;-59
2024/02/14 03:57:08;;;;;;;0.70;0.70;;;10.00;54.20;;;;;;5064702;28;20043;-58
2024/02/14 03:59:38;;;;;;;3.70;0.77;;;10.00;54.20;;;;;;5076495;28;20424;-59
2024/02/14 04:02:09;;;;;;;1.75;0.80;;;10.00;54.10;;;;;;5073990;28;20502;-61
2024/02/14 04:04:43;;;;;;;1.20;1.05;;;10.00;54.10;;;;;;5070977;28;20060;-62
2024/02/14 04:07:12;;;;;;;2.90;1.17;;;10.00;54.00;;;;;;5064612;28;20051;-61
2024/02/14 04:09:40;;;;;;;2.70;1.45;;;10.00;54.10;;;;;;5071426;28;20526;-60
2024/02/14 04:12:10;;;;;;;1.25;1.08;;;10.10;54.10;;;;;;5069281;28;20123;-60
2024/02/14 04:14:39;;;;;;;0.80;0.80;;;10.10;53.90;;;;;;5072626;28;20067;-60
2024/02/14 04:17:08;;;;;;;0.90;0.90;;;10.10;53.80;;;;;;5064068;28;20091;-59
2024/02/14 04:19:36;;;;;;;5.97;1.55;;;10.10;53.80;;;;;;5047066;28;20068;-65
2024/02/14 04:22:07;;;;;;;0.68;0.68;;;10.10;53.80;;;;;;5055372;28;20404;-60
2024/02/14 04:24:36;;;;;;;21.52;1.33;;;10.10;53.90;;;;;;5067802;28;20048;-61
2024/02/14 04:27:05;;;;;;;10.85;3.28;;;10.10;53.80;;;;;;5066298;28;20060;-58
2024/02/14 04:29:35;;;;;;;6.90;1.45;;;10.10;54.30;;;;;;5072515;28;20109;-60
2024/02/14 04:32:03;;;;;;;0.95;0.88;;;10.10;53.70;;;;;;5071748;28;20052;-60
2024/02/14 04:34:32;;;;;;;1.75;0.90;;;10.10;53.60;;;;;;5055286;28;20486;-68
2024/02/14 04:37:02;;;;;;;7.28;1.70;;;10.10;53.60;;;;;;5065571;28;20055;-58
2024/02/14 04:39:32;;;;;;;27.45;6.55;;;10.10;53.80;;;;;;5068075;28;20577;-59
2024/02/14 04:42:01;;;;;;;2.20;1.55;;;10.10;53.80;;;;;;5068001;28;20521;-60
2024/02/14 04:44:31;;;;;;;1.58;1.00;;;10.10;54.00;;;;;;5052119;28;20218;-60
2024/02/14 04:47:00;;;;;;;1.70;1.17;;;10.20;53.80;;;;;;5050055;28;20064;-61
2024/02/14 04:49:29;;;;;;;5.90;1.55;;;10.20;53.70;;;;;;5047728;28;20056;-61
2024/02/14 04:51:58;;;;;;;1.27;1.10;;;10.10;53.60;;;;;;5052227;28;20057;-60
2024/02/14 04:54:27;;;;;;;6.78;1.92;;;10.10;53.70;;;;;;5054378;28;20138;-60
2024/02/14 04:56:57;;;;;;;2.88;1.00;;;10.10;53.60;;;;;;5052666;28;20067;-61
2024/02/14 04:59:30;;;;;;;3.33;0.75;;;10.10;53.50;;;;;;5047325;28;20577;-59
2024/02/14 05:01:58;;;;;;;1.25;0.88;;;10.10;53.50;;;;;;5048566;28;20093;-61
2024/02/14 05:04:27;;;;;;;0.30;0.30;;;10.10;53.40;;;;;;5052360;28;20060;-59
2024/02/14 05:06:56;;;;;;;1.80;1.20;;;10.00;53.30;;;;;;5053717;28;20140;-59
2024/02/14 05:09:27;;;;;;;2.00;0.90;;;9.90;53.30;;;;;;5035723;28;20118;-60
2024/02/14 05:11:57;;;;;;;1.17;1.08;;;9.80;53.30;;;;;;5055609;28;20163;-60
2024/02/14 05:14:31;;;;;;;8.52;0.85;;;9.70;53.40;;;;;;5047138;28;20064;-61
2024/02/14 05:17:01;;;;;;;0.70;0.70;;;9.70;53.80;;;;;;5051203;28;20057;-60
2024/02/14 05:19:30;;;;;;;0.82;0.82;;;9.60;53.80;;;;;;5042380;28;20080;-59
2024/02/14 05:21:58;;;;;;;4.45;1.50;;;9.50;53.60;;;;;;5050147;28;20063;-59
2024/02/14 05:24:29;;;;;;;2.65;1.20;;;9.40;53.60;;;;;;5047548;28;20459;-59
2024/02/14 05:26:58;;;;;;;3.65;1.17;;;9.40;53.70;;;;;;5052794;28;20064;-60
2024/02/14 05:29:27;;;;;;;1.48;1.15;;;9.30;53.70;;;;;;5045717;28;20061;-59
2024/02/14 05:31:56;;;;;;;0.70;0.70;;;9.30;53.70;;;;;;5054463;28;20635;-60
2024/02/14 05:34:24;;;;;;;0.90;0.90;;;9.30;53.80;;;;;;5049992;28;20191;-60
2024/02/14 05:36:53;;;;;;;3.90;1.17;;;9.20;53.90;;;;;;5053500;28;20503;-64
2024/02/14 05:39:22;;;;;;;7.45;1.17;;;9.20;54.50;;;;;;5031078;28;20052;-64
2024/02/14 05:41:50;;;;;;;0.70;0.70;;;9.20;53.90;;;;;;5058528;28;20063;-63
2024/02/14 05:44:20;;;;;;;1.23;1.10;;;9.20;53.80;;;;;;5061534;28;20064;-63
2024/02/14 05:46:48;;;;;;;2.00;0.95;;;9.20;53.80;;;;;;5050691;28;20048;-64
2024/02/14 05:49:16;;;;;;;1.48;1.10;;;9.20;53.80;;;;;;5055821;28;20064;-64
2024/02/14 05:51:45;;;;;;;1.00;1.00;;;9.20;53.90;;;;;;5038284;28;20057;-65
2024/02/14 05:54:13;;;;;;;0.90;0.90;;;9.20;53.80;;;;;;5059895;28;20119;-63
2024/02/14 05:56:42;;;;;;;2.13;1.38;;;9.20;53.80;;;;;;5037321;28;20076;-64
2024/02/14 05:59:11;;;;;;;1.23;0.98;;;9.20;53.90;;;;;;5053148;28;20072;-63
2024/02/14 06:01:41;;;;;;;1.38;1.25;;;9.10;53.80;;;;;;5049819;28;20052;-63
2024/02/14 06:04:09;;;;;;;2.90;1.13;;;9.10;53.80;;;;;;5045912;28;20050;-63
2024/02/14 06:06:38;;;;;;;1.10;1.10;;;9.10;53.80;;;;;;5056420;28;20126;-63
2024/02/14 06:09:10;;;;;;;1.05;0.98;;;9.10;53.80;;;;;;5034989;28;20554;-62
2024/02/14 06:11:39;;;;;;;2.00;1.25;;;9.00;53.70;;;;;;5055522;28;20854;-64
2024/02/14 06:14:08;;;;;;;2.95;1.15;;;9.00;53.70;;;;;;5057514;28;20617;-64
2024/02/14 06:16:36;;;;;;;1.70;1.25;;;9.00;53.80;;;;;;5052686;28;20076;-64
2024/02/14 06:19:06;;;;;;;3.90;1.38;;;8.90;53.80;;;;;;5058909;28;20057;-64
2024/02/14 06:21:35;;;;;;;2.05;1.10;;;8.90;53.80;;;;;;5045060;28;20053;-64
2024/02/14 06:24:04;;;;;;;2.40;1.77;;;8.80;53.80;;;;;;5052575;28;20114;-64
2024/02/14 06:26:33;;;;;;;1.40;1.17;;;8.80;53.90;;;;;;5056406;28;20134;-63
2024/02/14 06:29:02;;;;;;;0.75;0.75;;;8.80;53.90;;;;;;5054555;28;20675;-63
2024/02/14 06:31:34;;;;;;;4.13;1.63;;;8.80;53.90;;;;;;5042680;28;20052;-64
2024/02/14 06:34:03;;;;;;;1.52;0.90;;;8.70;53.90;;;;;;5055001;28;20422;-60
2024/02/14 06:36:33;;;;;;;2.50;0.90;;;8.70;53.90;;;;;;5053703;28;20068;-61
2024/02/14 06:39:01;;;;;;;1.55;1.27;;;8.70;54.00;;;;;;5059928;28;20062;-69
2024/02/14 06:41:31;;;;;;;1.02;1.00;;;8.70;54.10;;;;;;5053161;28;20063;-63
2024/02/14 06:44:00;;;;;;;1.15;1.05;;;8.70;54.10;;;;;;5052998;28;20065;-60
2024/02/14 06:46:28;;;;;;;17.50;1.80;;;8.70;54.10;;;;;;5057265;28;20060;-60
2024/02/14 06:48:57;;;;;;;1.38;1.00;;;8.70;54.10;;;;;;5051321;28;20053;-61
2024/02/14 06:51:25;;;;;;;5.80;1.88;;;8.70;54.10;;;;;;5048689;28;20533;-60
2024/02/14 06:53:55;;;;;;;0.85;0.85;;;8.70;54.10;;;;;;5044292;28;20710;-59
2024/02/14 06:56:23;;;;;;;2.13;1.13;;;8.80;54.20;;;;;;5050155;28;20056;-63
2024/02/14 06:58:54;;;;;;;1.08;0.90;;;8.80;54.20;;;;;;5054139;28;20053;-60
2024/02/14 07:01:22;;;;;;;0.80;0.80;;;8.90;54.30;;;;;;5028328;28;20470;-59
2024/02/14 07:03:51;;;;;;;1.75;0.93;;;9.00;54.20;;;;;;5044883;28;20049;-59
2024/02/14 07:06:20;;;;;;;2.08;0.88;;;9.00;54.20;;;;;;5055477;28;20059;-57
2024/02/14 07:08:48;;;;;;;1.00;0.90;;;9.10;54.10;;;;;;5053153;28;20087;-60
2024/02/14 07:11:18;;;;;;;0.80;0.80;;;9.20;54.10;;;;;;5048478;28;20057;-59
2024/02/14 07:13:47;;;;;;;0.50;0.50;;;9.20;53.90;;;;;;5054058;28;20056;-60
2024/02/14 07:16:15;;;;;;;2.75;1.35;;;9.20;53.90;;;;;;5045118;28;20055;-61
2024/02/14 07:18:43;;;;;;;1.75;1.45;;;9.30;53.90;;;;;;5053283;28;20048;-60
2024/02/14 07:21:12;;;;;;;4.60;2.13;;;9.30;53.90;;;;;;5047788;28;20573;-59
2024/02/14 07:23:40;;;;;;;8.80;2.42;;;9.40;53.80;;;;;;5052898;28;20059;-60
2024/02/14 07:26:09;;;;;;;0.88;0.88;;;9.40;53.70;;;;;;5054616;28;20040;-60
2024/02/14 07:28:39;;;;;;;1.15;0.85;;;9.40;53.60;;;;;;5045174;28;20056;-62
2024/02/14 07:31:07;;;;;;;0.70;0.70;;;9.50;53.60;;;;;;5050673;28;20056;-59
2024/02/14 07:33:36;;;;;;;2.83;1.30;;;9.50;53.70;;;;;;5050737;28;20052;-61
2024/02/14 07:36:05;;;;;;;1.90;1.55;;;9.70;53.80;;;;;;5056136;28;20064;-59
2024/02/14 07:38:33;;;;;;;1.02;0.98;;;9.90;53.90;;;;;;5042125;28;20049;-59
2024/02/14 07:41:02;;;;;;;8.90;2.05;;;10.20;53.80;;;;;;5050817;28;20064;-60
2024/02/14 07:43:30;;;;;;;1.20;1.10;;;10.40;53.40;;;;;;5056458;28;20059;-60
2024/02/14 07:46:00;;;;;;;2.58;1.52;;;10.60;52.90;;;;;;5074236;28;20453;-61
2024/02/14 07:48:29;;;;;;;0.90;0.90;;;10.70;52.50;;;;;;5069205;28;20060;-59
2024/02/14 07:50:59;;;;;;;5.63;1.13;;;10.80;52.70;;;;;;5068398;28;20727;-61
2024/02/14 07:53:27;;;;;;;3.53;1.05;;;11.00;52.50;;;;;;5068221;28;20135;-60
2024/02/14 07:55:56;;;;;;;1.48;1.38;;;11.20;52.60;;;;;;5081405;28;20134;-60
2024/02/14 07:58:25;;;;;;;2.17;1.08;;;11.40;52.50;;;;;;5048377;28;20123;-60
2024/02/14 08:00:53;;;;;;;2.40;1.13;;;11.50;52.20;;;;;;5066712;28;20060;-62
2024/02/14 08:03:24;;;;;;;0.77;0.75;;;11.50;51.80;;;;;;5071859;28;20146;-59
2024/02/14 08:05:52;;;;;;;2.10;1.15;;;11.60;51.80;;;;;;5077557;28;20109;-60
2024/02/14 08:08:21;;;;;;;2.70;1.30;;;11.70;52.10;;;;;;5072460;28;20231;-62
2024/02/14 08:10:50;;;;;;;2.00;0.95;;;11.80;52.00;;;;;;5062649;28;20407;-61
2024/02/14 08:13:18;;;;;;;2.83;1.70;;;11.80;51.70;;;;;;5072551;28;20059;-61
2024/02/14 08:15:47;;;;;;;1.60;0.88;;;11.80;51.50;;;;;;5077248;28;20418;-61
2024/02/14 08:18:15;;;;;;;1.38;1.00;;;11.90;51.80;;;;;;5067073;28;20083;-61
2024/02/14 08:20:45;;;;;;;4.28;1.30;;;11.90;51.30;;;;;;5072520;28;20064;-61
2024/02/14 08:23:13;;;;;;;3.17;1.45;;;11.90;51.40;;;;;;5068956;28;20056;-60
2024/02/14 08:25:42;;;;;;;1.20;1.08;;;11.90;51.50;;;;;;5072489;28;20211;-60
2024/02/14 08:28:10;;;;;;;2.75;1.17;;;12.00;52.00;;;;;;5068073;28;20062;-61
2024/02/14 08:30:39;;;;;;;1.45;0.98;;;12.00;51.20;;;;;;5067966;28;20064;-60
2024/02/14 08:33:08;;;;;;;1.48;0.82;;;12.00;51.20;;;;;;5069638;28;20113;-60
2024/02/14 08:35:36;;;;;;;3.28;0.82;;;12.00;51.20;;;;;;5072393;28;20053;-62
2024/02/14 08:38:12;;;;;;;3.42;1.10;;;12.10;51.30;;;;;;5075637;28;20063;-61
2024/02/14 08:40:40;;;;;;;0.80;0.80;;;12.20;51.40;;;;;;5069259;28;20097;-60
2024/02/14 08:43:09;;;;;;;4.47;1.10;;;12.30;51.10;;;;;;5055809;28;20494;-60
2024/02/14 08:45:38;;;;;;;1.15;1.02;;;12.30;51.10;;;;;;5069410;28;20080;-60
2024/02/14 08:48:08;;;;;;;1.83;1.23;;;12.50;51.30;;;;;;5073109;28;20459;-60
2024/02/14 08:50:36;;;;;;;7.15;1.73;;;12.60;51.00;;;;;;5077227;28;20685;-62
2024/02/14 08:53:06;;;;;;;2.90;1.80;;;12.60;51.00;;;;;;5074084;28;20055;-61
2024/02/14 08:55:37;;;;;;;1.50;1.02;;;12.70;51.10;;;;;;5054726;28;20044;-60
2024/02/14 08:58:06;;;;;;;1.40;1.20;;;12.90;51.10;;;;;;5073828;28;20088;-60
2024/02/14 09:00:35;;;;;;;1.52;1.10;;;13.00;50.80;;;;;;5080571;28;20063;-61
2024/02/14 09:03:04;;;;;;;4.45;1.83;;;13.10;50.80;;;;;;5075384;28;20490;-60
2024/02/14 09:05:33;;;;;;;2.53;1.55;;;13.10;50.60;;;;;;5068809;28;20128;-60
2024/02/14 09:08:02;;;;;;;2.10;1.30;;;13.20;50.60;;;;;;5072940;28;20597;-60
2024/02/14 09:10:30;;;;;;;4.80;1.70;;;13.20;50.60;;;;;;5080639;28;20143;-60
2024/02/14 09:13:00;;;;;;;4.70;1.48;;;13.30;50.60;;;;;;5074814;28;20048;-60
2024/02/14 09:15:30;;;;;;;1.73;1.35;;;13.40;50.40;;;;;;5072578;28;20056;-60
2024/02/14 09:18:00;;;;;;;1.67;1.33;;;13.50;50.40;;;;;;5069599;28;20087;-59
2024/02/14 09:20:28;;;;;;;3.17;1.30;;;13.50;50.20;;;;;;5081863;28;20109;-61
2024/02/14 09:22:58;;;;;;;3.95;1.13;;;13.50;50.40;;;;;;5074629;28;20067;-60
2024/02/14 09:25:26;;;;;;;16.98;2.95;;;13.70;50.40;;;;;;5078337;28;20071;-61
2024/02/14 09:27:55;;;;;;;4.68;1.30;;;14.00;50.60;;;;;;5078698;28;20193;-60
2024/02/14 09:30:25;;;;;;;0.80;0.80;;;14.40;50.70;;;;;;5077808;28;20052;-60
2024/02/14 09:33:06;;;;;;;20.50;1.92;;;15.00;50.50;;;;;;5074177;28;20082;-60
2024/02/14 09:35:35;;;;;;;4.55;1.30;;;15.60;50.10;;;;;;5076739;28;20727;-59
2024/02/14 09:38:03;;;;;;;10.38;2.05;;;16.20;49.80;;;;;;5076657;28;20066;-60
2024/02/14 09:40:31;;;;;;;6.00;1.55;;;16.80;49.30;;;;;;5076462;28;20067;-60
2024/02/14 09:43:04;;;;;;;4.75;1.02;;;17.70;49.10;;;;;;5063146;28;20814;-61
2024/02/14 09:45:34;;;;;;;2.03;1.15;;;18.20;47.60;;;;;;5075048;28;20072;-60
2024/02/14 09:48:05;;;;;;;2.20;1.33;;;18.10;46.70;;;;;;5077315;28;20056;-60
2024/02/14 09:50:34;;;;;;;1.60;1.00;;;17.80;46.50;;;;;;5075394;28;20175;-60
2024/02/14 09:53:06;;;;;;;2.90;1.17;;;17.80;47.30;;;;;;5063269;28;20729;-60
2024/02/14 09:55:38;;;;;;;3.20;1.60;;;18.00;46.70;;;;;;5071370;28;21518;-61
2024/02/14 09:58:07;;;;;;;1.48;1.02;;;18.00;46.30;;;;;;5078282;28;20426;-60
2024/02/14 10:00:37;;;;;;;4.75;1.50;;;17.80;46.20;;;;;;5071496;28;20219;-60
2024/02/14 10:03:06;;;;;;;9.60;1.30;;;17.60;45.80;;;;;;5065543;28;20087;-61
2024/02/14 10:05:35;;;;;;;1.35;1.05;;;17.80;46.80;;;;;;5076592;28;20201;-60
2024/02/14 10:08:04;;;;;;;2.67;0.98;;;17.90;46.30;;;;;;5068346;28;20091;-61
2024/02/14 10:10:35;;;;;;;2.60;1.05;;;17.90;45.90;;;;;;5056351;28;20973;-60
2024/02/14 10:13:05;;;;;;;12.45;1.15;;;17.60;45.50;;;;;;5052424;28;20387;-63
2024/02/14 10:15:34;;;;;;;1.48;0.75;;;17.40;46.00;;;;;;5078783;28;20067;-60
2024/02/14 10:18:05;;;;;;;8.88;1.20;;;17.10;45.70;;;;;;5079920;28;20067;-60
2024/02/14 10:20:35;;;;;;;2.67;0.75;;;16.70;45.10;;;;;;5054460;28;20143;-60
2024/02/14 10:23:04;;;;;;;1.20;1.10;;;16.30;45.30;;;;;;5078334;28;20068;-60
2024/02/14 10:25:35;;;;;;;3.50;1.30;;;15.90;45.60;;;;;;5052243;28;20064;-62
2024/02/14 10:28:08;;;;;;;2.88;1.38;;;15.70;46.30;;;;;;5071984;28;20064;-60
2024/02/14 10:30:38;;;;;;;3.10;1.40;;;15.60;47.50;;;;;;5070473;28;20071;-61
2024/02/14 10:33:08;;;;;;;8.18;0.85;;;15.60;47.00;;;;;;5054776;28;20196;-62
2024/02/14 10:35:53;;;;;;;1.05;0.80;;;15.60;47.10;;;;;;5074694;28;20060;-60
2024/02/14 10:38:26;;;;;;;3.28;1.05;;;15.50;46.90;;;;;;5073165;28;20052;-59
2024/02/14 10:40:56;;;;;;;1.30;0.65;;;15.70;47.30;;;;;;5072351;28;20055;-62
2024/02/14 10:43:25;;;;;;;4.90;1.00;;;15.80;47.00;;;;;;5072251;28;20079;-60
2024/02/14 10:45:54;;;;;;;4.32;1.40;;;15.80;47.00;;;;;;5072989;28;20441;-60
2024/02/14 10:48:25;;;;;;;6.05;0.82;;;16.00;47.10;;;;;;5073794;28;20059;-59
2024/02/14 10:50:58;;;;;;;2.28;1.10;;;16.10;46.90;;;;;;5077601;28;20506;-60
2024/02/14 10:53:29;;;;;;;23.95;6.82;;;16.30;47.10;;;;;;5067464;28;20058;-61
2024/02/14 10:55:59;;;;;;;3.58;1.27;;;16.50;47.10;;;;;;5074709;28;20048;-62
2024/02/14 10:58:30;;;;;;;10.93;1.98;;;16.80;46.90;;;;;;5075087;28;20040;-60
2024/02/14 11:01:00;;;;;;;5.97;2.83;;;17.00;46.60;;;;;;5080149;28;20479;-60
2024/02/14 11:03:31;;;;;;;6.15;1.63;;;17.00;46.20;;;;;;5071868;28;20118;-60
2024/02/14 11:06:03;;;;;;;4.40;1.95;;;17.00;45.90;;;;;;5066943;28;20048;-60
2024/02/14 11:08:35;;;;;;;12.45;3.90;;;16.90;46.00;;;;;;5073474;28;20060;-60
2024/02/14 11:11:06;;;;;;;3.45;1.55;;;16.70;45.90;;;;;;5054101;28;20125;-60
2024/02/14 11:13:37;;;;;;;5.45;2.67;;;16.50;46.20;;;;;;5076813;28;20071;-61
2024/02/14 11:16:10;;;;;;;17.00;4.45;;;16.40;46.40;;;;;;5047187;28;20066;-61
2024/02/14 11:18:40;;;;;;;4.68;1.63;;;16.50;46.80;;;;;;5070463;28;20104;-62
2024/02/14 11:21:17;;;;;;;24.48;2.38;;;16.70;46.90;;;;;;5074715;28;20371;-63
2024/02/14 11:23:54;;;;;;;8.82;2.67;;;16.80;46.80;;;;;;5072697;28;20045;-61
2024/02/14 11:26:24;;;;;;;1.77;1.10;;;17.00;46.70;;;;;;5050557;28;20462;-61
2024/02/14 11:29:01;;;;;;;4.03;1.33;;;17.10;46.60;;;;;;5056166;28;20109;-64
2024/02/14 11:31:37;;;;;;;3.17;1.40;;;17.10;46.40;;;;;;5076795;28;20102;-64
2024/02/14 11:34:08;;;;;;;2.85;1.45;;;17.20;46.20;;;;;;5045900;28;20149;-63
2024/02/14 11:36:38;;;;;;;4.43;1.70;;;17.10;46.10;;;;;;5073660;28;20056;-64
2024/02/14 11:39:06;;;;;;;6.95;2.33;;;17.10;46.30;;;;;;5072470;28;20048;-63
2024/02/14 11:41:35;;;;;;;2.38;0.98;;;17.20;46.30;;;;;;5075656;28;20156;-61
2024/02/14 11:44:05;;;;;;;18.08;1.10;;;17.30;46.20;;;;;;5057362;28;20475;-62
2024/02/14 11:46:34;;;;;;;12.80;1.20;;;17.30;45.80;;;;;;5034994;28;20106;-63
2024/02/14 11:49:05;;;;;;;3.28;1.27;;;17.20;45.80;;;;;;5044597;28;20052;-62
2024/02/14 11:51:36;;;;;;;1.77;0.82;;;17.30;46.00;;;;;;5049599;28;20044;-65
2024/02/14 11:54:06;;;;;;;4.90;1.50;;;17.30;45.80;;;;;;5052229;28;20190;-61
2024/02/14 11:56:37;;;;;;;2.85;1.58;;;17.20;45.60;;;;;;5053303;28;20137;-61
2024/02/14 11:59:07;;;;;;;3.50;1.88;;;16.90;45.70;;;;;;5052079;28;20048;-60
2024/02/14 12:01:38;;;;;;;3.67;1.15;;;16.70;46.20;;;;;;5048654;28;20098;-62
2024/02/14 12:04:11;;;;;;;1.00;0.90;;;16.80;46.40;;;;;;5051481;28;20048;-60
2024/02/14 12:06:42;;;;;;;2.92;1.33;;;16.90;46.40;;;;;;5032497;28;20044;-60
2024/02/14 12:09:12;;;;;;;4.35;1.70;;;17.00;46.10;;;;;;5053213;28;20054;-63
2024/02/14 12:11:43;;;;;;;3.42;1.25;;;16.80;45.40;;;;;;5053757;28;20106;-63
2024/02/14 12:14:13;;;;;;;7.22;0.90;;;16.70;45.50;;;;;;5045094;28;20585;-60
2024/02/14 12:16:42;;;;;;;1.20;1.10;;;16.50;45.40;;;;;;5049645;28;20050;-61
2024/02/14 12:19:15;;;;;;;5.68;2.65;;;15.80;45.30;;;;;;5050437;28;20064;-62
2024/02/14 12:21:47;;;;;;;2.03;1.30;;;14.90;46.20;;;;;;5050039;28;20074;-62
2024/02/14 12:24:15;;;;;;;7.55;1.10;;;14.30;47.40;;;;;;5050036;28;20052;-62
2024/02/14 12:26:45;;;;;;;9.93;1.55;;;13.90;48.50;;;;;;5045543;28;20053;-64
2024/02/14 12:29:14;;;;;;;1.10;1.00;;;13.70;49.30;;;;;;5050418;28;20045;-63
2024/02/14 12:31:43;;;;;;;4.30;1.63;;;13.60;49.70;;;;;;5051566;28;20163;-61
2024/02/14 12:34:13;;;;;;;1.20;1.10;;;13.60;50.20;;;;;;5045551;28;20051;-61
2024/02/14 12:36:42;;;;;;;3.22;2.00;;;13.70;50.50;;;;;;5046138;28;20056;-60
2024/02/14 12:39:12;;;;;;;6.28;3.15;;;13.80;50.50;;;;;;5061196;28;20132;-62
2024/02/14 12:41:41;;;;;;;3.75;1.40;;;13.90;50.50;;;;;;5035680;28;20053;-61
2024/02/14 12:44:09;;;;;;;3.65;2.13;;;14.10;50.50;;;;;;5072452;28;20134;-63
2024/02/14 12:46:38;;;;;;;1.77;1.10;;;14.20;50.40;;;;;;5067862;28;20471;-62
2024/02/14 12:49:08;;;;;;;1.92;1.63;;;14.40;50.00;;;;;;5078415;28;20071;-61
2024/02/14 12:51:38;;;;;;;71.85;20.95;;;14.60;49.80;;;;;;5079888;28;20071;-64
2024/02/14 12:54:07;;;;;;;6.43;2.28;;;14.70;49.80;;;;;;5077868;28;20144;-61
2024/02/14 12:56:37;;;;;;;4.20;1.95;;;14.90;49.80;;;;;;5072893;28;20044;-62
2024/02/14 12:59:05;;;;;;;9.45;1.52;;;15.10;49.60;;;;;;5077155;28;20517;-63
2024/02/14 13:01:34;;;;;;;8.77;1.98;;;15.30;49.40;;;;;;5057147;28;20052;-60